Time;durP1;ratioP1;P1;durP2;ratioP2;P2;SDS_P1;SDS_P2;PMS_P1;PMS_P2;Temp;Humidity;BMP_temperature;BMP_pressure;BME280_temperature;BME280_humidity;BME280_pressure;Samples;Min_cycle;Max_cycle;Signal;HPM_P1;HPM_P2
2023/03/05 00:01:06;;;;;;;61.65;23.60;;;1.80;99.90;;;;;;5013001;28;20045;-80
2023/03/05 00:03:33;;;;;;;60.05;22.17;;;1.80;99.90;;;;;;5016372;28;20129;-80
2023/03/05 00:06:00;;;;;;;52.92;21.05;;;1.80;99.90;;;;;;5016260;28;20081;-81
2023/03/05 00:08:27;;;;;;;54.33;22.02;;;1.80;99.90;;;;;;5018525;28;20054;-80
2023/03/05 00:10:56;;;;;;;52.10;20.50;;;1.80;99.90;;;;;;5013500;28;20050;-80
2023/03/05 00:13:23;;;;;;;56.70;21.60;;;1.70;99.90;;;;;;5022203;28;20395;-80
2023/03/05 00:15:50;;;;;;;50.58;22.27;;;1.70;99.90;;;;;;5016760;28;20054;-79
2023/03/05 00:18:17;;;;;;;56.20;21.50;;;1.70;99.90;;;;;;5025620;28;20081;-80
2023/03/05 00:20:44;;;;;;;57.40;21.88;;;1.70;99.90;;;;;;5020341;28;20057;-80
2023/03/05 00:23:11;;;;;;;54.88;21.33;;;1.70;99.90;;;;;;5024079;28;20041;-79
2023/03/05 00:25:39;;;;;;;50.70;21.48;;;1.60;99.90;;;;;;5022635;28;20049;-79
2023/03/05 00:28:07;;;;;;;45.83;19.90;;;1.60;99.90;;;;;;5023892;28;20685;-79
2023/03/05 00:30:34;;;;;;;57.00;20.48;;;1.60;99.90;;;;;;5016102;28;20045;-79
2023/03/05 00:33:01;;;;;;;48.65;19.58;;;1.60;99.90;;;;;;5013541;28;20049;-80
2023/03/05 00:35:28;;;;;;;50.58;20.67;;;1.50;99.90;;;;;;5014112;28;20527;-80
2023/03/05 00:37:55;;;;;;;50.25;20.42;;;1.50;99.90;;;;;;5019769;28;20068;-81
2023/03/05 00:40:21;;;;;;;50.05;20.77;;;1.50;99.90;;;;;;5017975;28;20517;-79
2023/03/05 00:42:48;;;;;;;53.40;21.00;;;1.50;99.90;;;;;;5011878;28;20536;-80
2023/03/05 00:45:15;;;;;;;51.70;21.95;;;1.50;99.90;;;;;;5014790;28;20425;-81
2023/03/05 00:47:42;;;;;;;48.90;19.90;;;1.40;99.90;;;;;;5006624;28;20072;-80
2023/03/05 00:50:09;;;;;;;50.42;20.88;;;1.40;99.90;;;;;;5016068;28;20045;-80
2023/03/05 00:52:36;;;;;;;49.58;19.60;;;1.40;99.90;;;;;;5006374;28;20050;-79
2023/03/05 00:55:02;;;;;;;51.45;21.27;;;1.40;99.90;;;;;;5016924;28;20050;-79
2023/03/05 00:57:29;;;;;;;53.33;20.30;;;1.40;99.90;;;;;;5008028;28;20057;-80
2023/03/05 00:59:56;;;;;;;53.35;20.45;;;1.40;99.90;;;;;;5018698;28;20068;-79
2023/03/05 01:02:22;;;;;;;53.80;21.13;;;1.30;99.90;;;;;;5019308;28;20503;-80
2023/03/05 01:04:49;;;;;;;50.80;21.80;;;1.30;99.90;;;;;;5009395;28;20136;-80
2023/03/05 01:07:16;;;;;;;53.05;21.25;;;1.30;99.90;;;;;;5011092;28;20054;-81
2023/03/05 01:09:43;;;;;;;53.63;20.63;;;1.30;99.90;;;;;;5019802;28;20064;-80
2023/03/05 01:12:09;;;;;;;58.00;21.25;;;1.30;99.90;;;;;;5037926;28;20057;-80
2023/03/05 01:14:36;;;;;;;50.08;21.45;;;1.30;99.90;;;;;;5008598;28;20042;-80
2023/03/05 01:17:03;;;;;;;57.47;21.25;;;1.30;99.90;;;;;;5015667;28;20053;-80
2023/03/05 01:19:30;;;;;;;57.72;22.50;;;1.40;99.90;;;;;;5010356;28;20053;-80
2023/03/05 01:21:56;;;;;;;50.35;20.95;;;1.30;99.90;;;;;;5013853;28;20525;-81
2023/03/05 01:24:23;;;;;;;53.35;20.67;;;1.30;99.90;;;;;;5012675;28;20042;-80
2023/03/05 01:26:50;;;;;;;54.95;21.65;;;1.30;99.90;;;;;;5014205;28;20052;-80
2023/03/05 01:29:17;;;;;;;56.13;22.58;;;1.30;99.90;;;;;;5015904;28;20488;-81
2023/03/05 01:31:43;;;;;;;52.17;20.35;;;1.30;99.90;;;;;;5015760;28;20109;-78
2023/03/05 01:34:10;;;;;;;52.30;19.77;;;1.30;99.90;;;;;;5011092;28;20505;-80
2023/03/05 01:36:39;;;;;;;57.28;22.20;;;1.20;99.90;;;;;;5013149;28;20073;-79
2023/03/05 01:39:06;;;;;;;51.95;18.85;;;1.20;99.90;;;;;;5020634;28;20053;-80
2023/03/05 01:41:33;;;;;;;58.30;21.63;;;1.20;99.90;;;;;;5014453;28;20060;-80
2023/03/05 01:44:00;;;;;;;54.05;20.92;;;1.20;99.90;;;;;;5022494;28;20042;-80
2023/03/05 01:46:33;;;;;;;50.05;20.35;;;1.20;99.90;;;;;;5010742;28;20048;-79
2023/03/05 01:49:00;;;;;;;55.70;21.38;;;1.20;99.90;;;;;;5035263;28;20100;-80
2023/03/05 01:51:30;;;;;;;53.67;21.05;;;1.20;99.90;;;;;;5014117;28;20136;-80
2023/03/05 01:53:58;;;;;;;;;;;1.20;99.90;;;;;;5012604;28;20057;-79
2023/03/05 01:56:26;;;;;;;53.20;20.92;;;1.20;99.90;;;;;;5025539;28;19929;-79
2023/03/05 01:58:54;;;;;;;60.47;20.30;;;1.10;99.90;;;;;;5014944;28;20056;-80
2023/03/05 02:01:21;;;;;;;52.53;20.48;;;1.10;99.90;;;;;;5008178;28;20050;-80
2023/03/05 02:03:47;;;;;;;52.83;21.48;;;1.10;99.90;;;;;;5012651;28;20046;-80
2023/03/05 02:06:14;;;;;;;55.33;21.42;;;1.10;99.90;;;;;;5014487;28;20049;-81
2023/03/05 02:08:41;;;;;;;52.05;20.58;;;1.10;99.90;;;;;;5014622;28;20413;-80
2023/03/05 02:11:08;;;;;;;50.95;21.48;;;1.10;99.90;;;;;;5031501;28;20054;-80
2023/03/05 02:13:39;;;;;;;50.65;21.33;;;1.10;99.90;;;;;;5012002;28;20109;-80
2023/03/05 02:16:06;;;;;;;57.40;20.60;;;1.10;99.90;;;;;;5030338;28;20056;-79
2023/03/05 02:18:33;;;;;;;58.78;21.23;;;1.10;99.90;;;;;;5013991;28;20069;-80
2023/03/05 02:21:08;;;;;;;53.17;20.15;;;1.10;99.90;;;;;;5021917;28;20424;-79
2023/03/05 02:23:37;;;;;;;48.95;19.35;;;1.10;99.90;;;;;;5017373;28;20085;-79
2023/03/05 02:26:07;;;;;;;49.05;20.45;;;1.10;99.90;;;;;;5033476;28;20476;-79
2023/03/05 02:28:49;;;;;;;57.47;20.05;;;1.10;99.90;;;;;;5012751;28;20058;-79
2023/03/05 02:31:22;;;;;;;55.85;19.65;;;1.00;99.90;;;;;;5009905;28;20056;-80
2023/03/05 02:33:50;;;;;;;53.65;21.52;;;1.00;99.90;;;;;;5015141;28;20414;-80
2023/03/05 02:36:17;;;;;;;53.42;21.10;;;1.00;99.90;;;;;;5028666;28;20088;-79
2023/03/05 02:38:45;;;;;;;51.28;21.38;;;1.00;99.90;;;;;;5016435;28;20038;-80
2023/03/05 02:41:13;;;;;;;53.15;22.25;;;1.00;99.90;;;;;;5015423;28;20049;-79
2023/03/05 02:43:40;;;;;;;52.60;22.13;;;0.90;99.90;;;;;;5027954;28;20053;-79
2023/03/05 02:46:07;;;;;;;54.97;22.13;;;0.90;99.90;;;;;;5016773;28;20041;-79
2023/03/05 02:48:34;;;;;;;55.35;21.20;;;0.90;99.90;;;;;;5015686;28;20425;-80
2023/03/05 02:51:02;;;;;;;53.25;20.45;;;0.90;99.90;;;;;;5016522;28;20424;-80
2023/03/05 02:53:29;;;;;;;58.10;22.20;;;0.90;99.90;;;;;;5019143;28;20053;-80
2023/03/05 02:55:56;;;;;;;59.45;21.23;;;0.90;99.90;;;;;;5017798;28;20049;-79
2023/03/05 02:58:23;;;;;;;53.83;21.23;;;0.80;99.90;;;;;;5020266;28;20111;-80
2023/03/05 03:00:49;;;;;;;48.70;20.85;;;0.80;99.90;;;;;;5016721;28;20537;-78
2023/03/05 03:03:16;;;;;;;48.10;21.27;;;0.80;99.90;;;;;;5023072;28;20638;-79
2023/03/05 03:05:43;;;;;;;57.10;22.95;;;0.80;99.90;;;;;;5016370;28;20555;-80
2023/03/05 03:08:10;;;;;;;62.35;23.13;;;0.80;99.90;;;;;;5023815;28;20057;-79
2023/03/05 03:10:37;;;;;;;55.30;22.27;;;0.70;99.90;;;;;;5018852;28;21190;-79
2023/03/05 03:13:03;;;;;;;69.35;25.38;;;0.40;99.90;;;;;;5022681;28;20050;-80
2023/03/05 03:15:30;;;;;;;59.08;23.83;;;0.40;99.90;;;;;;5020178;28;20058;-80
2023/03/05 03:17:56;;;;;;;59.28;24.40;;;0.40;99.90;;;;;;5014264;28;20050;-79
2023/03/05 03:20:23;;;;;;;56.33;22.55;;;0.50;99.90;;;;;;5013511;28;20054;-80
2023/03/05 03:22:50;;;;;;;56.20;24.60;;;0.50;99.90;;;;;;5009059;28;20049;-79
2023/03/05 03:25:21;;;;;;;60.47;23.85;;;0.50;99.90;;;;;;5017300;28;20042;-78
2023/03/05 03:27:48;;;;;;;55.35;23.15;;;0.50;99.90;;;;;;5010707;28;20046;-79
2023/03/05 03:30:15;;;;;;;55.10;22.50;;;0.50;99.90;;;;;;5018551;28;20060;-80
2023/03/05 03:32:42;;;;;;;56.35;23.17;;;0.50;99.90;;;;;;5009920;28;20133;-79
2023/03/05 03:35:11;;;;;;;60.53;24.25;;;0.50;99.90;;;;;;5016707;28;20402;-78
2023/03/05 03:37:37;;;;;;;68.93;25.90;;;0.50;99.90;;;;;;5022376;28;20077;-80
2023/03/05 03:40:05;;;;;;;62.83;23.10;;;0.50;99.90;;;;;;5017682;28;20056;-79
2023/03/05 03:42:32;;;;;;;61.70;25.02;;;0.50;99.90;;;;;;5008631;28;20136;-80
2023/03/05 03:45:01;;;;;;;61.95;24.92;;;0.50;99.90;;;;;;5018613;28;20046;-78
2023/03/05 03:47:28;;;;;;;67.82;25.50;;;0.50;99.90;;;;;;5009757;28;20413;-79
2023/03/05 03:49:55;;;;;;;57.58;23.42;;;0.50;99.90;;;;;;5018880;28;20421;-78
2023/03/05 03:52:22;;;;;;;64.05;23.45;;;0.50;99.90;;;;;;5009407;28;20049;-80
2023/03/05 03:54:51;;;;;;;62.83;23.58;;;0.50;99.90;;;;;;5012685;28;20041;-80
2023/03/05 03:57:18;;;;;;;60.22;23.35;;;0.50;99.90;;;;;;5013165;28;20085;-79
2023/03/05 03:59:44;;;;;;;63.95;24.70;;;0.50;99.90;;;;;;5019904;28;20061;-80
2023/03/05 04:02:11;;;;;;;55.50;22.25;;;0.50;99.90;;;;;;5021232;28;20077;-79
2023/03/05 04:04:38;;;;;;;63.65;25.17;;;0.50;99.90;;;;;;5008909;28;20417;-80
2023/03/05 04:07:05;;;;;;;63.10;25.25;;;0.50;99.90;;;;;;5014012;28;20425;-79
2023/03/05 04:09:32;;;;;;;63.70;23.85;;;0.50;99.90;;;;;;5013168;28;20524;-79
2023/03/05 04:11:58;;;;;;;62.00;24.67;;;0.50;99.90;;;;;;5017781;28;20136;-80
2023/03/05 04:14:26;;;;;;;63.85;25.00;;;0.50;99.90;;;;;;5017356;28;20058;-80
2023/03/05 04:16:53;;;;;;;63.95;25.90;;;0.50;99.90;;;;;;5015918;28;20141;-80
2023/03/05 04:19:20;;;;;;;61.10;23.40;;;0.50;99.90;;;;;;5012340;28;20053;-80
2023/03/05 04:21:46;;;;;;;61.05;22.50;;;0.50;99.90;;;;;;5018449;28;20085;-80
2023/03/05 04:24:14;;;;;;;61.67;22.73;;;0.50;99.90;;;;;;5018882;28;20048;-80
2023/03/05 04:26:41;;;;;;;65.93;23.23;;;0.40;99.90;;;;;;5014549;28;20049;-80
2023/03/05 04:29:08;;;;;;;60.90;22.58;;;0.40;99.90;;;;;;5017107;28;20049;-80
2023/03/05 04:31:35;;;;;;;63.17;24.17;;;0.40;99.90;;;;;;5014339;28;20050;-79
2023/03/05 04:34:01;;;;;;;64.40;25.45;;;0.40;99.90;;;;;;5024602;28;20100;-79
2023/03/05 04:36:28;;;;;;;66.68;24.80;;;0.40;99.90;;;;;;5015229;28;20069;-80
2023/03/05 04:38:55;;;;;;;67.60;26.23;;;0.40;99.90;;;;;;5014538;28;20046;-77
2023/03/05 04:41:21;;;;;;;65.57;25.52;;;0.40;99.90;;;;;;5012702;28;20046;-80
2023/03/05 04:43:48;;;;;;;74.15;26.20;;;0.30;99.90;;;;;;5011822;28;20078;-81
2023/03/05 04:46:15;;;;;;;66.15;24.48;;;0.40;99.90;;;;;;5018020;28;20052;-79
2023/03/05 04:48:41;;;;;;;63.50;25.25;;;0.30;99.90;;;;;;5015804;28;20441;-80
2023/03/05 04:51:08;;;;;;;67.22;25.00;;;0.30;99.90;;;;;;5014439;28;20080;-80
2023/03/05 04:53:35;;;;;;;66.35;25.52;;;0.20;99.90;;;;;;5009059;28;20050;-80
2023/03/05 04:56:01;;;;;;;72.72;26.45;;;0.20;99.90;;;;;;5017033;28;20046;-80
2023/03/05 04:58:28;;;;;;;66.43;25.05;;;0.20;99.90;;;;;;5016400;28;20413;-79
2023/03/05 05:01:03;;;;;;;68.90;25.98;;;0.20;99.90;;;;;;5009934;28;20046;-81
2023/03/05 05:03:30;;;;;;;67.18;27.73;;;0.30;99.90;;;;;;5007565;28;20132;-79
2023/03/05 05:05:58;;;;;;;71.60;26.55;;;0.30;99.90;;;;;;5021224;28;20045;-79
2023/03/05 05:08:26;;;;;;;64.85;26.17;;;0.30;99.90;;;;;;5021376;28;20049;-80
2023/03/05 05:11:03;;;;;;;69.50;26.95;;;0.30;99.90;;;;;;5022117;28;20068;-80
2023/03/05 05:13:30;;;;;;;73.63;27.13;;;0.30;99.90;;;;;;5012308;28;20046;-80
2023/03/05 05:15:57;;;;;;;62.58;25.60;;;0.30;99.90;;;;;;5007304;28;20109;-80
2023/03/05 05:18:25;;;;;;;72.53;26.67;;;0.30;99.90;;;;;;5009833;28;20425;-80
2023/03/05 05:20:52;;;;;;;65.75;25.75;;;0.30;99.90;;;;;;5011602;28;20054;-78
2023/03/05 05:23:18;;;;;;;72.30;27.00;;;0.30;99.90;;;;;;5012524;28;20049;-79
2023/03/05 05:25:45;;;;;;;71.15;25.33;;;0.30;99.90;;;;;;5009876;28;20043;-80
2023/03/05 05:28:12;;;;;;;65.50;25.55;;;0.30;99.90;;;;;;5015059;28;20049;-80
2023/03/05 05:30:38;;;;;;;64.95;24.90;;;0.40;99.90;;;;;;5011438;28;20501;-78
2023/03/05 05:33:05;;;;;;;68.05;24.83;;;0.40;99.90;;;;;;5015494;28;20501;-80
2023/03/05 05:35:32;;;;;;;64.35;25.48;;;0.40;99.90;;;;;;5017860;28;20057;-80
2023/03/05 05:37:58;;;;;;;66.72;25.35;;;0.40;99.90;;;;;;5036622;28;20050;-80
2023/03/05 05:40:25;;;;;;;65.70;25.98;;;0.40;99.90;;;;;;5029080;28;20033;-82
2023/03/05 05:42:51;;;;;;;64.85;24.95;;;0.40;99.90;;;;;;5036852;28;20089;-81
2023/03/05 05:45:18;;;;;;;57.58;23.85;;;0.30;99.90;;;;;;5029416;28;20090;-79
2023/03/05 05:47:45;;;;;;;68.97;27.40;;;0.40;99.90;;;;;;5019588;28;20054;-80
2023/03/05 05:50:13;;;;;;;69.95;28.27;;;0.40;99.90;;;;;;5012304;28;20050;-79
2023/03/05 05:52:40;;;;;;;74.13;25.90;;;0.40;99.90;;;;;;5022994;28;20069;-79
2023/03/05 05:55:07;;;;;;;68.25;27.50;;;0.30;99.90;;;;;;5021983;28;20045;-80
2023/03/05 05:57:34;;;;;;;56.10;24.02;;;0.30;99.90;;;;;;5014943;28;20141;-80
2023/03/05 06:00:02;;;;;;;68.20;24.67;;;0.30;99.90;;;;;;5014130;28;20140;-80
2023/03/05 06:02:29;;;;;;;65.35;25.02;;;0.30;99.90;;;;;;5018200;28;20046;-79
2023/03/05 06:04:56;;;;;;;72.97;26.00;;;0.30;99.90;;;;;;5015038;28;20046;-79
2023/03/05 06:07:24;;;;;;;63.83;24.70;;;0.30;99.90;;;;;;5024589;28;20049;-80
2023/03/05 06:09:50;;;;;;;75.40;26.35;;;0.30;99.90;;;;;;5012428;28;20456;-79
2023/03/05 06:12:17;;;;;;;67.38;25.60;;;0.20;99.90;;;;;;5015777;28;20054;-79
2023/03/05 06:14:44;;;;;;;67.25;26.20;;;0.20;99.90;;;;;;5016430;28;20049;-80
2023/03/05 06:17:10;;;;;;;70.35;27.20;;;0.30;99.90;;;;;;5014137;28;20057;-79
2023/03/05 06:19:42;;;;;;;68.50;23.83;;;0.20;99.90;;;;;;5019847;28;20527;-80
2023/03/05 06:22:09;;;;;;;67.22;23.33;;;0.20;99.90;;;;;;5017607;28;20417;-79
2023/03/05 06:24:37;;;;;;;64.10;25.05;;;0.30;99.90;;;;;;5018149;28;20056;-80
2023/03/05 06:27:04;;;;;;;65.38;25.25;;;0.30;99.90;;;;;;5021902;28;20046;-80
2023/03/05 06:29:31;;;;;;;61.55;25.58;;;0.30;99.90;;;;;;5017248;28;20069;-80
2023/03/05 06:31:58;;;;;;;56.45;23.55;;;0.30;99.90;;;;;;5020674;28;20558;-79
2023/03/05 06:34:25;;;;;;;53.60;22.60;;;0.30;99.90;;;;;;5020538;28;20060;-80
2023/03/05 06:36:51;;;;;;;55.95;23.02;;;0.30;99.90;;;;;;5013305;28;20052;-80
2023/03/05 06:39:18;;;;;;;63.33;23.73;;;0.30;99.90;;;;;;5020049;28;20049;-79
2023/03/05 06:41:45;;;;;;;60.05;23.23;;;0.40;99.90;;;;;;5026827;28;20421;-81
2023/03/05 06:44:12;;;;;;;52.38;21.20;;;0.30;99.90;;;;;;5017546;28;20129;-80
2023/03/05 06:46:38;;;;;;;52.90;20.65;;;0.40;99.90;;;;;;5014869;28;20105;-80
2023/03/05 06:49:07;;;;;;;52.20;21.10;;;0.40;99.90;;;;;;5017030;28;20050;-80
2023/03/05 06:51:35;;;;;;;54.90;21.95;;;0.40;99.90;;;;;;5017459;28;20138;-80
2023/03/05 06:54:07;;;;;;;55.85;22.15;;;0.50;99.90;;;;;;5016011;28;20509;-80
2023/03/05 06:56:35;;;;;;;56.45;21.77;;;0.50;99.90;;;;;;5016729;28;20110;-80
2023/03/05 06:59:03;;;;;;;56.67;22.27;;;0.60;99.90;;;;;;5017409;28;20447;-80
2023/03/05 07:01:29;;;;;;;51.63;22.88;;;0.70;99.90;;;;;;5015890;28;20048;-80
2023/03/05 07:04:01;;;;;;;56.00;25.13;;;0.70;99.90;;;;;;5018150;28;20448;-79
2023/03/05 07:06:31;;;;;;;54.35;24.90;;;0.80;99.90;;;;;;5018356;28;20045;-81
2023/03/05 07:09:00;;;;;;;57.85;25.55;;;0.90;99.90;;;;;;5014561;28;20050;-80
2023/03/05 07:11:27;;;;;;;49.75;22.13;;;1.00;99.90;;;;;;5019384;28;20524;-80
2023/03/05 07:13:54;;;;;;;61.75;24.15;;;1.00;99.90;;;;;;5033964;28;20066;-80
2023/03/05 07:16:23;;;;;;;65.80;26.90;;;1.10;99.90;;;;;;5011646;28;20508;-80
2023/03/05 07:18:51;;;;;;;67.30;30.17;;;1.20;99.90;;;;;;5011486;28;20046;-81
2023/03/05 07:21:23;;;;;;;76.07;35.10;;;1.30;99.90;;;;;;5017124;28;20049;-80
2023/03/05 07:23:52;;;;;;;71.97;30.23;;;1.40;99.90;;;;;;5024793;28;20054;-80
2023/03/05 07:26:18;;;;;;;62.40;28.80;;;1.50;99.90;;;;;;5028449;28;20061;-81
2023/03/05 07:28:45;;;;;;;65.57;27.25;;;1.60;99.90;;;;;;5025654;28;20046;-80
2023/03/05 07:31:21;;;;;;;73.97;33.17;;;1.60;99.90;;;;;;5044940;28;20046;-81
2023/03/05 07:33:49;;;;;;;80.13;33.67;;;1.70;99.90;;;;;;5026360;28;20056;-81
2023/03/05 07:36:16;;;;;;;59.08;28.95;;;1.80;99.90;;;;;;5026732;28;20053;-81
2023/03/05 07:38:43;;;;;;;58.72;26.73;;;1.90;99.90;;;;;;5015549;28;20056;-82
2023/03/05 07:41:12;;;;;;;57.92;26.58;;;1.90;99.90;;;;;;5021488;28;20133;-81
2023/03/05 07:43:40;;;;;;;58.42;26.33;;;2.00;99.90;;;;;;5019432;28;20109;-82
2023/03/05 07:46:08;;;;;;;58.97;28.92;;;2.10;99.90;;;;;;5019395;28;20068;-81
2023/03/05 07:48:35;;;;;;;64.68;29.27;;;2.20;99.90;;;;;;5017390;28;20490;-81
2023/03/05 07:51:07;;;;;;;61.05;25.15;;;2.30;99.90;;;;;;5020556;28;20050;-81
2023/03/05 07:53:34;;;;;;;65.47;26.60;;;2.40;99.90;;;;;;5018428;28;20046;-81
2023/03/05 07:56:01;;;;;;;59.53;25.77;;;2.50;99.90;;;;;;5021295;28;20136;-81
2023/03/05 07:58:27;;;;;;;58.38;24.40;;;2.60;99.90;;;;;;5019532;28;20050;-80
2023/03/05 08:00:54;;;;;;;61.70;27.73;;;2.70;99.90;;;;;;5018259;28;20056;-81
2023/03/05 08:03:21;;;;;;;68.78;27.77;;;2.80;99.90;;;;;;5014437;28;20057;-81
2023/03/05 08:05:48;;;;;;;59.00;25.65;;;2.90;99.90;;;;;;5014830;28;20433;-81
2023/03/05 08:08:15;;;;;;;68.15;27.33;;;2.90;99.90;;;;;;5014909;28;20128;-81
2023/03/05 08:10:42;;;;;;;59.92;26.23;;;3.10;99.90;;;;;;5025882;28;20136;-80
2023/03/05 08:13:08;;;;;;;62.03;26.15;;;3.10;99.90;;;;;;5023554;28;20042;-81
2023/03/05 08:15:38;;;;;;;62.10;26.50;;;3.20;99.90;;;;;;5015592;28;20065;-82
2023/03/05 08:18:05;;;;;;;59.60;25.60;;;3.30;99.90;;;;;;5010590;28;20108;-81
2023/03/05 08:20:34;;;;;;;60.75;26.05;;;3.40;99.90;;;;;;5013846;28;20049;-81
2023/03/05 08:23:02;;;;;;;63.78;25.48;;;3.50;99.90;;;;;;5015298;28;20449;-81
2023/03/05 08:25:28;;;;;;;66.13;26.27;;;3.60;99.90;;;;;;5009963;28;20076;-82
2023/03/05 08:27:55;;;;;;;57.08;25.45;;;3.70;99.90;;;;;;5034129;28;20050;-81
2023/03/05 08:30:25;;;;;;;62.70;27.13;;;3.80;99.90;;;;;;5025999;28;20042;-81
2023/03/05 08:32:53;;;;;;;;;;;3.80;99.90;;;;;;5019535;28;20060;-81
2023/03/05 08:35:20;;;;;;;63.95;25.77;;;3.90;99.90;;;;;;5011488;28;19922;-81
2023/03/05 08:37:47;;;;;;;65.03;27.00;;;4.00;99.90;;;;;;5021584;28;20041;-81
2023/03/05 08:40:16;;;;;;;65.80;27.67;;;4.00;99.90;;;;;;5016553;28;20044;-81
2023/03/05 08:42:43;;;;;;;59.07;25.00;;;4.10;99.90;;;;;;5033799;28;20101;-81
2023/03/05 08:45:10;;;;;;;62.97;28.55;;;4.20;99.90;;;;;;5036118;28;20303;-81
2023/03/05 08:47:37;;;;;;;62.53;26.55;;;4.30;99.90;;;;;;5030661;28;20053;-79
2023/03/05 08:50:04;;;;;;;59.35;26.48;;;4.30;99.90;;;;;;5024527;28;20045;-82
2023/03/05 08:52:31;;;;;;;60.75;26.65;;;4.40;99.90;;;;;;5027184;28;20050;-80
2023/03/05 08:54:57;;;;;;;61.30;27.10;;;4.40;99.90;;;;;;5033004;28;20049;-81
2023/03/05 08:57:24;;;;;;;61.05;27.60;;;4.50;99.90;;;;;;5029520;28;20052;-82
2023/03/05 08:59:50;;;;;;;62.75;24.95;;;4.50;99.90;;;;;;5031582;28;20049;-79
2023/03/05 09:02:17;;;;;;;57.78;26.67;;;4.50;99.90;;;;;;5029146;28;20049;-80
2023/03/05 09:04:44;;;;;;;55.17;27.08;;;4.60;99.90;;;;;;5030098;28;20456;-81
2023/03/05 09:07:11;;;;;;;64.38;27.55;;;4.60;99.90;;;;;;5018683;28;20058;-81
2023/03/05 09:09:39;;;;;;;58.25;27.20;;;4.60;99.90;;;;;;5018433;28;20053;-80
2023/03/05 09:12:06;;;;;;;67.65;28.05;;;4.60;99.90;;;;;;5014446;28;20101;-81
2023/03/05 09:14:32;;;;;;;55.53;25.65;;;4.60;99.90;;;;;;5023468;28;20064;-83
2023/03/05 09:17:00;;;;;;;63.10;27.25;;;4.60;99.90;;;;;;5018736;28;20046;-81
2023/03/05 09:19:27;;;;;;;60.40;26.92;;;4.60;99.90;;;;;;5025940;28;20106;-81
2023/03/05 09:21:54;;;;;;;62.42;26.38;;;4.60;99.90;;;;;;5029383;28;20046;-81
2023/03/05 09:24:22;;;;;;;57.10;25.67;;;4.60;99.90;;;;;;5028646;28;20061;-80
2023/03/05 09:26:49;;;;;;;58.92;25.73;;;4.60;99.90;;;;;;5028506;28;20042;-82
2023/03/05 09:29:16;;;;;;;62.05;25.50;;;4.60;99.90;;;;;;5045445;28;20053;-81
2023/03/05 09:31:42;;;;;;;62.90;27.17;;;4.50;99.90;;;;;;5025430;28;20046;-79
2023/03/05 09:34:10;;;;;;;64.22;26.65;;;4.50;99.90;;;;;;5018418;28;20096;-82
2023/03/05 09:36:37;;;;;;;61.97;26.02;;;4.50;99.90;;;;;;5033159;28;20049;-81
2023/03/05 09:39:05;;;;;;;58.53;26.85;;;4.50;99.90;;;;;;5024321;28;20077;-81
2023/03/05 09:42:06;;;;;;;61.53;26.70;;;4.40;99.90;;;;;;5020563;28;20076;-82
2023/03/05 09:44:54;;;;;;;56.03;25.10;;;4.50;99.90;;;;;;5021684;28;20060;-80
2023/03/05 09:47:42;;;;;;;57.88;26.33;;;4.50;99.90;;;;;;5019409;28;20507;-81
2023/03/05 09:50:22;;;;;;;60.90;25.00;;;4.50;99.90;;;;;;5020477;28;20046;-81
2023/03/05 09:53:06;;;;;;;62.67;28.52;;;4.60;99.90;;;;;;5022261;28;20045;-81
2023/03/05 09:55:39;;;;;;;65.10;26.75;;;4.60;99.90;;;;;;5019355;28;20092;-81
2023/03/05 09:58:16;;;;;;;57.63;25.45;;;4.70;99.90;;;;;;5030607;28;20046;-82
2023/03/05 10:00:48;;;;;;;54.75;24.42;;;4.80;99.90;;;;;;5013470;28;20489;-80
2023/03/05 10:03:42;;;;;;;51.13;23.35;;;4.90;99.90;;;;;;5027020;28;20041;-82
2023/03/05 10:06:22;;;;;;;59.47;25.02;;;4.90;99.90;;;;;;5037121;28;20045;-82
2023/03/05 10:09:07;;;;;;;54.13;23.95;;;5.00;99.90;;;;;;5039014;28;20129;-79
2023/03/05 10:11:55;;;;;;;51.60;23.15;;;5.00;99.90;;;;;;5021201;28;20046;-81
2023/03/05 10:14:30;;;;;;;52.67;22.25;;;5.00;99.90;;;;;;5018903;28;20064;-80
2023/03/05 10:17:16;;;;;;;54.03;24.25;;;5.10;99.90;;;;;;5018343;28;20047;-81
2023/03/05 10:20:02;;;;;;;53.17;23.52;;;5.10;99.90;;;;;;5018605;28;20046;-81
2023/03/05 10:22:55;;;;;;;49.20;21.95;;;5.10;99.90;;;;;;5020240;28;20498;-81
2023/03/05 10:25:46;;;;;;;52.78;22.58;;;5.10;99.90;;;;;;5017325;28;20049;-81
2023/03/05 10:28:42;;;;;;;49.90;22.45;;;5.00;99.90;;;;;;5011998;28;20046;-80
2023/03/05 10:31:39;;;;;;;49.15;20.45;;;5.00;99.90;;;;;;5013260;28;20046;-82
2023/03/05 10:34:46;;;;;;;45.45;20.13;;;5.00;99.90;;;;;;5012441;28;20690;-81
2023/03/05 10:37:32;;;;;;;47.97;19.90;;;5.00;99.90;;;;;;5016045;28;20142;-80
2023/03/05 10:40:14;;;;;;;48.42;21.13;;;5.10;99.90;;;;;;5014171;28;20062;-79
2023/03/05 10:42:53;;;;;;;50.67;20.63;;;5.10;99.90;;;;;;5017777;28;20042;-80
2023/03/05 10:45:34;;;;;;;45.50;18.67;;;5.10;99.90;;;;;;5033045;28;20042;-81
2023/03/05 10:48:28;;;;;;;46.70;21.15;;;5.10;99.90;;;;;;5013080;28;20046;-81
2023/03/05 10:51:19;;;;;;;48.25;20.23;;;5.10;99.90;;;;;;5022185;28;20054;-81
2023/03/05 10:53:58;;;;;;;47.78;20.73;;;5.00;99.90;;;;;;5017752;28;20045;-81
2023/03/05 10:56:27;;;;;;;45.55;21.50;;;5.00;99.90;;;;;;5015145;28;20116;-81
2023/03/05 10:58:54;;;;;;;43.70;18.58;;;5.00;99.90;;;;;;5020271;28;20050;-81
2023/03/05 11:01:28;;;;;;;45.45;20.83;;;5.00;99.90;;;;;;5016607;28;20712;-80
2023/03/05 11:04:02;;;;;;;48.00;20.13;;;5.00;99.90;;;;;;5018633;28;20050;-83
2023/03/05 11:06:42;;;;;;;39.72;18.98;;;5.00;99.90;;;;;;5016968;28;20052;-83
2023/03/05 11:09:31;;;;;;;38.17;18.58;;;5.10;99.90;;;;;;5031635;28;20042;-81
2023/03/05 11:12:07;;;;;;;48.75;20.77;;;5.10;99.90;;;;;;5020209;28;20425;-80
2023/03/05 11:14:37;;;;;;;41.60;17.58;;;5.10;99.90;;;;;;5017694;28;20410;-81
2023/03/05 11:17:27;;;;;;;39.35;19.15;;;5.10;99.90;;;;;;5017946;28;20129;-81
2023/03/05 11:19:56;;;;;;;40.47;19.02;;;5.10;99.90;;;;;;5013354;28;20137;-81
2023/03/05 11:22:24;;;;;;;42.38;18.58;;;5.10;99.90;;;;;;5021193;28;20397;-81
2023/03/05 11:25:17;;;;;;;50.13;19.75;;;5.10;99.90;;;;;;5014726;28;20053;-82
2023/03/05 11:27:53;;;;;;;41.05;17.00;;;5.20;99.90;;;;;;5019789;28;20056;-81
2023/03/05 11:30:26;;;;;;;45.67;17.08;;;5.20;99.90;;;;;;5012646;28;20052;-81
2023/03/05 11:33:29;;;;;;;45.15;18.75;;;5.30;99.90;;;;;;5013188;28;20421;-81
2023/03/05 11:36:18;;;;;;;28.42;14.30;;;5.30;99.90;;;;;;4970637;28;20530;-81
2023/03/05 11:39:09;;;;;;;35.90;15.80;;;5.30;99.90;;;;;;5009388;28;20141;-81
2023/03/05 11:41:39;;;;;;;32.72;16.30;;;5.30;99.90;;;;;;5018806;28;20268;-81
2023/03/05 11:44:15;;;;;;;38.92;16.83;;;5.30;99.90;;;;;;5026413;28;20046;-79
2023/03/05 11:47:15;;;;;;;34.47;16.27;;;5.30;99.90;;;;;;5014123;28;20416;-82
2023/03/05 11:49:45;;;;;;;32.60;15.63;;;5.30;99.90;;;;;;5013394;28;20053;-80
2023/03/05 11:52:23;;;;;;;31.15;15.57;;;5.30;99.90;;;;;;5013836;28;20137;-81
2023/03/05 11:55:11;;;;;;;33.15;15.80;;;5.40;99.90;;;;;;5013963;28;20046;-80
2023/03/05 11:58:01;;;;;;;37.50;15.55;;;5.50;99.90;;;;;;5011064;28;20048;-80
2023/03/05 12:00:31;;;;;;;34.63;16.27;;;5.50;99.90;;;;;;5012638;28;20038;-80
2023/03/05 12:03:03;;;;;;;32.38;15.55;;;5.60;99.90;;;;;;5007654;28;20046;-80
2023/03/05 12:05:30;;;;;;;35.42;15.00;;;5.70;99.90;;;;;;5012836;28;20041;-81
2023/03/05 12:08:01;;;;;;;32.53;15.52;;;5.80;99.90;;;;;;5019460;28;20046;-81
2023/03/05 12:10:27;;;;;;;;;;;5.80;99.90;;;;;;5017515;28;20052;-82
2023/03/05 12:13:33;;;;;;;35.33;14.75;;;5.80;99.90;;;;;;5008473;28;19921;-80
2023/03/05 12:16:23;;;;;;;35.72;16.38;;;5.90;99.90;;;;;;5019545;28;20049;-81
2023/03/05 12:19:12;;;;;;;31.60;15.30;;;5.90;99.90;;;;;;5016997;28;20046;-80
2023/03/05 12:21:41;;;;;;;37.20;15.77;;;6.00;99.90;;;;;;5026663;28;20052;-80
2023/03/05 12:24:23;;;;;;;33.25;16.77;;;6.00;99.90;;;;;;5011136;28;20152;-80
2023/03/05 12:26:55;;;;;;;30.73;15.13;;;6.00;99.90;;;;;;5009973;28;20132;-80
2023/03/05 12:29:39;;;;;;;27.23;14.15;;;6.00;99.90;;;;;;5012602;28;20425;-80
2023/03/05 12:32:21;;;;;;;29.73;15.73;;;5.90;99.90;;;;;;5013117;28;20073;-80
2023/03/05 12:34:56;;;;;;;31.95;15.73;;;5.90;99.90;;;;;;5010975;28;20496;-82
2023/03/05 12:37:23;;;;;;;33.70;16.15;;;5.90;99.90;;;;;;5009562;28;20042;-80
2023/03/05 12:39:59;;;;;;;28.92;14.60;;;6.00;99.90;;;;;;5023908;28;20052;-80
2023/03/05 12:42:29;;;;;;;30.58;14.40;;;6.00;99.90;;;;;;5024326;28;20144;-81
2023/03/05 12:45:11;;;;;;;31.00;14.93;;;6.10;99.90;;;;;;5011276;28;20045;-81
2023/03/05 12:47:39;;;;;;;30.90;13.43;;;6.10;99.90;;;;;;5014685;28;20149;-81
2023/03/05 12:50:28;;;;;;;28.85;14.30;;;6.20;99.90;;;;;;5019393;28;20038;-80
2023/03/05 12:53:05;;;;;;;33.40;14.20;;;6.20;99.90;;;;;;5016950;28;20417;-80
2023/03/05 12:55:50;;;;;;;25.92;13.57;;;6.20;99.90;;;;;;5010291;28;20129;-80